createdAt,value
2022-09-05T00:02:24.238Z,62.76
2022-09-05T00:05:01.634Z,62.46
2022-09-05T00:07:58.162Z,62.60
2022-09-05T00:11:18.103Z,62.93
2022-09-05T00:13:41.464Z,62.66
2022-09-05T00:16:44.990Z,62.81
2022-09-05T00:24:14.928Z,62.59
2022-09-05T00:24:37.053Z,62.75
2022-09-05T00:25:46.837Z,62.72
2022-09-05T00:28:26.100Z,62.93
2022-09-05T00:31:54.682Z,63.07
2022-09-05T00:34:19.963Z,63.07
2022-09-05T00:36:54.227Z,62.89
2022-09-05T00:39:28.394Z,63.20
2022-09-05T00:42:01.336Z,63.13
2022-09-05T00:44:36.145Z,63.25
2022-09-05T00:47:13.730Z,63.21
2022-09-05T00:49:49.814Z,63.83
2022-09-05T00:52:28.103Z,64.14
2022-09-05T00:55:21.125Z,63.71
2022-09-05T00:58:11.484Z,63.39
2022-09-05T01:00:54.534Z,63.61
2022-09-05T01:03:38.451Z,63.71
2022-09-05T01:06:28.100Z,63.37
2022-09-05T01:09:22.076Z,63.59
2022-09-05T01:12:02.460Z,63.83
2022-09-05T01:14:48.332Z,63.98
2022-09-05T01:17:39.923Z,63.95
2022-09-05T01:20:57.226Z,63.87
2022-09-05T01:24:07.082Z,64.01
2022-09-05T01:27:21.385Z,64.11
2022-09-05T01:30:00.126Z,64.41
2022-09-05T01:32:39.428Z,64.14
2022-09-05T01:35:38.425Z,64.33
2022-09-05T01:38:15.158Z,64.75
2022-09-05T01:41:18.021Z,64.56
2022-09-05T01:44:23.202Z,64.42
2022-09-05T01:47:09.811Z,64.61
2022-09-05T01:50:00.736Z,64.27
2022-09-05T01:52:58.745Z,63.93
2022-09-05T01:56:04.293Z,64.09
2022-09-05T01:58:54.116Z,64.27
2022-09-05T02:01:33.390Z,64.43
2022-09-05T02:04:38.705Z,64.52
2022-09-05T02:07:30.831Z,64.52
2022-09-05T02:10:31.615Z,64.60
2022-09-05T02:13:14.631Z,64.57
2022-09-05T02:15:59.084Z,64.47
2022-09-05T02:18:44.568Z,64.98
2022-09-05T02:21:23.975Z,64.63
2022-09-05T02:24:04.298Z,64.68
2022-09-05T02:26:38.432Z,65.02
2022-09-05T02:29:28.444Z,64.96
2022-09-05T02:32:05.169Z,64.94
2022-09-05T02:34:43.400Z,65.03
2022-09-05T02:38:13.291Z,65.00
2022-09-05T02:45:10.844Z,65.38
2022-09-05T02:45:18.189Z,65.37
2022-09-05T02:46:14.367Z,65.37
2022-09-05T02:48:58.118Z,65.05
2022-09-05T02:57:27.556Z,65.36
2022-09-05T02:57:40.615Z,65.57
2022-09-05T02:58:06.291Z,65.73
2022-09-05T03:00:32.524Z,65.48
2022-09-05T03:03:24.494Z,65.24
2022-09-05T03:06:08.889Z,65.33
2022-09-05T03:09:17.286Z,65.88
2022-09-05T03:12:28.921Z,66.20
2022-09-05T03:15:50.116Z,65.65
2022-09-05T03:18:50.692Z,65.54
2022-09-05T03:21:49.462Z,65.55
2022-09-05T03:24:54.182Z,65.32
2022-09-05T03:28:10.620Z,65.42
2022-09-05T03:31:07.109Z,65.73
2022-09-05T03:34:28.887Z,65.79
2022-09-05T03:37:41.148Z,65.91
2022-09-05T03:40:43.776Z,65.84
2022-09-05T03:43:37.682Z,65.81
2022-09-05T03:46:22.982Z,65.68
2022-09-05T03:50:31.181Z,65.82
2022-09-05T03:57:10.353Z,65.78
2022-09-05T03:57:15.841Z,66.00
2022-09-05T03:58:55.977Z,66.07
2022-09-05T04:04:58.992Z,66.03
2022-09-05T04:08:24.412Z,66.01
2022-09-05T04:08:29.746Z,65.84
2022-09-05T04:10:33.592Z,65.85
2022-09-05T04:13:10.203Z,66.06
2022-09-05T04:15:47.838Z,65.88
2022-09-05T04:18:33.750Z,65.86
2022-09-05T04:21:14.576Z,66.20
2022-09-05T04:24:01.524Z,66.27
2022-09-05T04:27:01.932Z,66.38
2022-09-05T04:29:44.700Z,66.53
2022-09-05T04:32:32.291Z,66.64
2022-09-05T04:35:20.949Z,66.67
2022-09-05T04:37:55.766Z,66.75
2022-09-05T04:40:47.841Z,66.98
2022-09-05T04:43:26.967Z,66.94
2022-09-05T04:46:03.225Z,67.06
2022-09-05T04:48:39.716Z,67.06
2022-09-05T04:51:30.169Z,67.18
2022-09-05T04:54:21.924Z,67.15
2022-09-05T04:56:56.164Z,67.65
2022-09-05T05:01:48.791Z,66.89
2022-09-05T05:06:14.889Z,66.96
2022-09-05T05:06:18.350Z,66.82
2022-09-05T05:08:30.359Z,66.96
2022-09-05T05:17:29.830Z,67.01
2022-09-05T05:18:10.380Z,66.83
2022-09-05T05:18:11.317Z,66.61
2022-09-05T05:20:40.626Z,67.08
2022-09-05T05:22:58.141Z,66.99
2022-09-05T05:25:48.179Z,67.09
2022-09-05T05:28:25.590Z,67.10
2022-09-05T05:31:01.784Z,65.86
2022-09-05T05:33:35.474Z,63.46
2022-09-05T05:36:08.861Z,61.01
2022-09-05T05:38:45.100Z,58.76
2022-09-05T05:41:22.787Z,57.02
2022-09-05T05:43:52.510Z,55.75
2022-09-05T05:46:36.894Z,54.48
2022-09-05T05:49:18.993Z,53.32
2022-09-05T05:52:03.086Z,52.57
2022-09-05T05:54:43.386Z,53.85
2022-09-05T05:57:57.194Z,52.67
2022-09-05T06:00:38.676Z,51.41
2022-09-05T06:03:43.998Z,50.23
2022-09-05T06:06:38.183Z,49.24
2022-09-05T06:14:54.960Z,50.09
2022-09-05T06:15:04.230Z,50.52
2022-09-05T06:16:21.758Z,52.66
2022-09-05T06:19:28.887Z,51.07
2022-09-05T06:22:45.606Z,52.61
2022-09-05T06:25:46.801Z,56.33
2022-09-05T06:28:26.636Z,57.22
2022-09-05T06:31:29.090Z,53.77
2022-09-05T06:34:33.556Z,52.49
2022-09-05T06:37:16.635Z,53.60
2022-09-05T06:40:03.997Z,52.59
2022-09-05T06:42:44.246Z,58.21
2022-09-05T06:45:38.108Z,53.94
2022-09-05T06:48:32.109Z,53.40
2022-09-05T06:51:48.634Z,55.48
2022-09-05T06:55:13.579Z,53.95
2022-09-05T06:58:30.149Z,53.00
2022-09-05T07:01:02.405Z,54.17
2022-09-05T07:03:59.604Z,56.72
2022-09-05T07:07:06.798Z,54.25
2022-09-05T07:09:52.303Z,54.01
2022-09-05T07:12:30.229Z,54.04
2022-09-05T07:15:10.600Z,53.73
2022-09-05T07:18:09.588Z,52.95
2022-09-05T07:21:15.823Z,50.88
2022-09-05T07:24:09.084Z,49.78
2022-09-05T07:26:51.820Z,51.24
2022-09-05T07:29:27.708Z,51.58
2022-09-05T07:31:59.578Z,49.86
2022-09-05T07:34:31.738Z,50.83
2022-09-05T07:37:15.097Z,50.48
2022-09-05T07:39:49.398Z,49.86
2022-09-05T07:42:24.703Z,48.50
2022-09-05T07:44:57.899Z,46.60
2022-09-05T07:47:31.397Z,46.26
2022-09-05T07:51:59.227Z,45.28
2022-09-05T07:56:59.937Z,45.62
2022-09-05T07:57:10.878Z,45.84
2022-09-05T07:58:45.980Z,46.79
2022-09-05T08:01:17.942Z,46.45
2022-09-05T08:03:46.834Z,46.03
2022-09-05T08:07:46.511Z,43.82
2022-09-05T08:10:06.795Z,46.96
2022-09-05T08:12:11.445Z,42.34
2022-09-05T08:14:52.855Z,44.78
2022-09-05T08:17:26.278Z,46.01
2022-09-05T08:20:17.619Z,47.26
2022-09-05T08:22:56.188Z,43.90
2022-09-05T08:25:37.560Z,43.62
2022-09-05T08:28:26.249Z,44.46
2022-09-05T08:31:14.406Z,44.94
2022-09-05T08:33:44.492Z,45.09
2022-09-05T08:36:22.834Z,41.86
2022-09-05T08:38:52.031Z,41.42
2022-09-05T08:41:43.062Z,41.16
2022-09-05T08:46:36.406Z,40.22
2022-09-05T08:47:24.223Z,40.37
2022-09-05T08:50:26.882Z,43.13
2022-09-05T08:53:28.133Z,41.97
2022-09-05T08:56:06.555Z,41.20
2022-09-05T08:59:27.506Z,42.86
2022-09-05T09:02:44.823Z,41.13
2022-09-05T09:05:14.189Z,39.29
2022-09-05T09:07:52.053Z,42.31
2022-09-05T09:10:34.933Z,39.33
2022-09-05T09:13:29.212Z,38.76
2022-09-05T09:16:06.598Z,38.28
2022-09-05T09:19:02.259Z,40.10
2022-09-05T09:21:36.664Z,37.97
2022-09-05T09:24:18.861Z,39.35
2022-09-05T09:26:56.657Z,39.07
2022-09-05T09:29:27.832Z,35.71
2022-09-05T09:32:07.000Z,39.23
2022-09-05T09:34:47.269Z,37.94
2022-09-05T09:37:51.746Z,38.33
2022-09-05T09:40:36.836Z,39.56
2022-09-05T09:43:17.667Z,38.15
2022-09-05T09:46:09.871Z,36.60
2022-09-05T09:49:21.661Z,35.92
2022-09-05T09:52:31.872Z,37.03
2022-09-05T09:55:47.188Z,34.94
2022-09-05T09:58:36.805Z,39.55
2022-09-05T10:01:36.097Z,35.08
2022-09-05T10:10:34.567Z,33.52
2022-09-05T10:10:46.314Z,33.76
2022-09-05T10:14:26.252Z,37.14
2022-09-05T10:17:23.347Z,33.89
2022-09-05T10:20:10.527Z,33.00
2022-09-05T10:23:10.660Z,33.67
2022-09-05T10:26:12.357Z,32.71
2022-09-05T10:28:53.320Z,33.60
2022-09-05T10:33:21.284Z,31.31
2022-09-05T10:35:14.642Z,32.39
2022-09-05T10:37:16.022Z,38.78
2022-09-05T10:39:47.940Z,37.63
2022-09-05T10:42:25.332Z,34.36
2022-09-05T10:44:55.790Z,34.60
2022-09-05T10:47:36.078Z,31.59
2022-09-05T10:50:14.216Z,35.79
2022-09-05T10:53:04.912Z,32.60
2022-09-05T10:55:43.284Z,31.60
2022-09-05T10:59:28.983Z,31.85
2022-09-05T11:02:28.150Z,30.55
2022-09-05T11:04:37.203Z,36.44
2022-09-05T11:07:26.663Z,33.03
2022-09-05T11:10:08.126Z,37.30
2022-09-05T11:12:57.643Z,29.59
2022-09-05T11:15:33.812Z,34.85
2022-09-05T11:18:06.396Z,33.72
2022-09-05T11:20:58.218Z,32.58
2022-09-05T11:23:35.042Z,31.38
2022-09-05T11:26:25.973Z,30.25
2022-09-05T11:29:00.482Z,36.71
2022-09-05T11:32:44.844Z,36.57
2022-09-05T11:39:54.426Z,30.52
2022-09-05T11:40:10.269Z,30.57
2022-09-05T11:41:50.974Z,30.44
2022-09-05T11:44:36.447Z,30.00
2022-09-05T11:47:46.396Z,36.80
2022-09-05T11:50:56.491Z,32.63
2022-09-05T11:53:57.285Z,31.72
2022-09-05T11:56:49.016Z,34.84
2022-09-05T11:59:47.401Z,36.95
2022-09-05T12:02:39.367Z,29.84
2022-09-05T12:05:48.891Z,32.87
2022-09-05T12:08:32.360Z,35.87
2022-09-05T12:11:14.008Z,31.40
2022-09-05T12:13:48.574Z,30.44
2022-09-05T12:16:47.461Z,30.51
2022-09-05T12:19:26.899Z,32.15
2022-09-05T12:22:29.032Z,30.54
2022-09-05T12:27:35.454Z,32.32
2022-09-05T12:29:28.087Z,31.77
2022-09-05T12:32:31.020Z,30.47
2022-09-05T12:40:58.061Z,31.25
2022-09-05T12:41:35.259Z,29.01
2022-09-05T12:42:09.561Z,29.89
2022-09-05T12:44:36.696Z,31.73
2022-09-05T12:45:59.249Z,31.26
2022-09-05T12:48:38.676Z,29.14
2022-09-05T12:51:45.267Z,31.65
2022-09-05T12:54:10.379Z,33.89
2022-09-05T13:00:48.177Z,29.36
2022-09-05T13:03:02.254Z,32.46
2022-09-05T13:03:08.338Z,30.30
2022-09-05T13:05:52.252Z,29.29
2022-09-05T13:08:23.233Z,28.62
2022-09-05T13:14:49.601Z,29.87
2022-09-05T13:14:57.460Z,34.19
2022-09-05T13:16:41.406Z,30.54
2022-09-05T13:19:29.353Z,29.18
2022-09-05T13:22:01.039Z,29.55
2022-09-05T13:24:35.826Z,30.21
2022-09-05T13:27:13.841Z,29.46
2022-09-05T13:34:29.442Z,35.33
2022-09-05T13:38:00.572Z,30.63
2022-09-05T13:38:14.441Z,29.75
2022-09-05T13:38:48.429Z,36.86
2022-09-05T13:41:28.568Z,32.91
2022-09-05T13:44:24.895Z,32.63
2022-09-05T13:46:58.562Z,31.81
2022-09-05T13:49:37.167Z,36.06
2022-09-05T13:52:26.314Z,31.91
2022-09-05T13:55:04.636Z,34.99
2022-09-05T13:57:40.177Z,33.16
2022-09-05T14:00:53.816Z,29.85
2022-09-05T14:04:06.053Z,29.23
2022-09-05T14:10:11.822Z,28.29
2022-09-05T14:12:48.683Z,30.70
2022-09-05T14:15:37.493Z,32.17
2022-09-05T14:18:21.659Z,29.26
2022-09-05T14:21:14.212Z,32.40
2022-09-05T14:23:53.805Z,32.60
2022-09-05T14:26:31.626Z,36.53
2022-09-05T14:29:15.114Z,36.52
2022-09-05T14:37:34.411Z,30.49
2022-09-05T14:37:43.463Z,31.02
2022-09-05T14:38:09.589Z,37.60
2022-09-05T14:41:26.473Z,36.28
2022-09-05T14:44:23.779Z,36.25
2022-09-05T14:47:32.490Z,32.85
2022-09-05T14:50:27.701Z,30.10
2022-09-05T14:56:51.562Z,29.34
2022-09-05T15:02:51.310Z,33.02
2022-09-05T15:02:52.077Z,29.50
2022-09-05T15:04:46.572Z,31.78
2022-09-05T15:07:23.917Z,33.32
2022-09-05T15:11:47.296Z,36.11
2022-09-05T15:13:02.259Z,37.23
2022-09-05T15:15:35.824Z,33.02
2022-09-05T15:18:07.478Z,35.16
2022-09-05T15:20:40.164Z,32.79
2022-09-05T15:23:16.734Z,34.34
2022-09-05T15:25:48.271Z,29.07
2022-09-05T15:28:22.448Z,30.39
2022-09-05T15:30:58.966Z,35.57
2022-09-05T15:33:29.910Z,33.92
2022-09-05T15:36:01.413Z,32.94
2022-09-05T15:38:54.283Z,35.54
2022-09-05T15:41:26.423Z,30.64
2022-09-05T15:43:59.737Z,34.49
2022-09-05T15:46:46.316Z,29.48
2022-09-05T15:49:28.255Z,27.57
2022-09-05T15:52:01.315Z,27.92
2022-09-05T15:54:37.331Z,29.08
2022-09-05T15:57:17.497Z,31.45
2022-09-05T15:59:49.656Z,29.01
2022-09-05T16:02:23.285Z,36.57
2022-09-05T16:10:33.693Z,36.35
2022-09-05T16:10:37.464Z,35.55
2022-09-05T16:11:39.374Z,35.89
2022-09-05T16:13:53.058Z,35.90
2022-09-05T16:21:34.313Z,35.90
2022-09-05T16:23:26.207Z,36.45
2022-09-05T16:23:32.024Z,35.92
2022-09-05T16:25:11.810Z,35.87
2022-09-05T16:27:54.338Z,35.65
2022-09-05T16:30:25.451Z,35.68
2022-09-05T16:33:01.154Z,35.78
2022-09-05T16:35:33.845Z,35.77
2022-09-05T16:38:13.025Z,36.21
2022-09-05T16:40:48.562Z,36.35
2022-09-05T16:43:21.477Z,36.38
2022-09-05T16:45:57.571Z,36.27
2022-09-05T16:48:38.196Z,35.80
2022-09-05T16:51:18.280Z,32.22
2022-09-05T16:54:11.062Z,32.61
2022-09-05T16:56:44.722Z,31.97
2022-09-05T16:59:17.638Z,31.87
2022-09-05T17:02:07.231Z,32.81
2022-09-05T17:05:04.382Z,33.66
2022-09-05T17:07:50.067Z,34.64
2022-09-05T17:10:21.008Z,34.72
2022-09-05T17:12:55.078Z,35.64
2022-09-05T17:15:29.357Z,35.45
2022-09-05T17:18:20.389Z,35.65
2022-09-05T17:20:56.016Z,35.60
2022-09-05T17:28:34.665Z,35.24
2022-09-05T17:29:31.265Z,35.57
2022-09-05T17:32:48.193Z,36.86
2022-09-05T17:35:42.471Z,37.23
2022-09-05T17:38:38.363Z,37.61
2022-09-05T17:41:55.430Z,37.49
2022-09-05T17:44:30.071Z,37.30
2022-09-05T17:47:15.293Z,38.02
2022-09-05T17:49:45.989Z,39.52
2022-09-05T17:52:21.071Z,39.06
2022-09-05T17:54:52.550Z,39.16
2022-09-05T17:57:41.382Z,40.43
2022-09-05T18:00:44.170Z,40.40
2022-09-05T18:04:16.268Z,40.85
2022-09-05T18:07:00.656Z,40.90
2022-09-05T18:10:12.632Z,40.05
2022-09-05T18:13:13.348Z,39.63
2022-09-05T18:16:11.770Z,40.15
2022-09-05T18:19:32.681Z,40.21
2022-09-05T18:21:49.558Z,40.72
2022-09-05T18:24:33.481Z,42.39
2022-09-05T18:27:43.905Z,42.53
2022-09-05T18:30:08.201Z,43.24
2022-09-05T18:32:42.403Z,43.19
2022-09-05T18:35:37.145Z,43.89
2022-09-05T18:38:17.778Z,44.65
2022-09-05T18:41:18.289Z,45.16
2022-09-05T18:44:12.279Z,46.95
2022-09-05T18:46:47.057Z,47.78
2022-09-05T18:50:25.140Z,48.15
2022-09-05T18:52:17.078Z,49.20
2022-09-05T18:55:46.349Z,49.76
2022-09-05T18:57:52.311Z,50.56
2022-09-05T19:00:44.661Z,50.50
2022-09-05T19:03:19.434Z,49.81
2022-09-05T19:05:54.751Z,49.97
2022-09-05T19:08:31.879Z,49.71
2022-09-05T19:11:27.549Z,50.29
2022-09-05T19:14:14.217Z,50.06
2022-09-05T19:16:48.390Z,49.93
2022-09-05T19:19:24.879Z,49.93
2022-09-05T19:22:52.608Z,48.11
2022-09-05T19:24:47.077Z,50.55
2022-09-05T19:29:01.344Z,51.17
2022-09-05T19:36:54.024Z,52.40
2022-09-05T19:36:56.709Z,50.32
2022-09-05T19:37:03.121Z,51.69
2022-09-05T19:41:31.789Z,50.73
2022-09-05T19:47:40.430Z,49.85
2022-09-05T19:47:41.669Z,50.68
2022-09-05T19:47:56.107Z,50.55
2022-09-05T19:50:11.531Z,49.22
2022-09-05T19:52:41.086Z,49.60
2022-09-05T19:55:21.885Z,49.38
2022-09-05T19:57:54.210Z,49.59
2022-09-05T20:00:45.910Z,49.39
2022-09-05T20:03:38.586Z,49.65
2022-09-05T20:06:29.232Z,49.14
2022-09-05T20:09:10.812Z,48.68
2022-09-05T20:11:45.681Z,48.44
2022-09-05T20:14:20.518Z,48.40
2022-09-05T20:16:50.437Z,48.35
2022-09-05T20:19:28.465Z,48.05
2022-09-05T20:21:59.770Z,48.08
2022-09-05T20:24:49.258Z,48.41
2022-09-05T20:27:17.957Z,48.36
2022-09-05T20:29:56.955Z,48.58
2022-09-05T20:32:39.493Z,48.78
2022-09-05T20:36:31.375Z,49.10
2022-09-05T20:43:16.978Z,49.28
2022-09-05T20:43:26.808Z,49.85
2022-09-05T20:44:01.517Z,50.21
2022-09-05T20:48:31.814Z,50.67
2022-09-05T20:54:14.518Z,50.49
2022-09-05T20:54:22.172Z,50.76
2022-09-05T20:55:38.898Z,50.56
2022-09-05T20:58:12.170Z,50.12
2022-09-05T21:00:46.366Z,49.97
2022-09-05T21:03:36.754Z,50.06
2022-09-05T21:06:22.715Z,50.03
2022-09-05T21:08:55.380Z,50.56
2022-09-05T21:11:32.808Z,50.31
2022-09-05T21:14:04.750Z,50.10
2022-09-05T21:16:36.733Z,49.98
2022-09-05T21:19:05.607Z,50.11
2022-09-05T21:21:35.782Z,50.47
2022-09-05T21:24:17.657Z,50.61
2022-09-05T21:26:49.377Z,50.58
2022-09-05T21:29:27.465Z,50.61
2022-09-05T21:32:10.275Z,51.18
2022-09-05T21:34:45.300Z,51.63
2022-09-05T21:37:16.247Z,51.80
2022-09-05T21:39:59.499Z,52.48
2022-09-05T21:46:02.581Z,52.38
2022-09-05T21:47:44.485Z,52.64
2022-09-05T21:48:10.552Z,52.34
2022-09-05T21:50:43.065Z,52.88
2022-09-05T21:55:19.540Z,53.35
2022-09-05T21:59:16.566Z,53.09
2022-09-05T21:59:32.589Z,53.21
2022-09-05T22:01:58.078Z,53.59
2022-09-05T22:04:27.171Z,53.40
2022-09-05T22:06:58.647Z,53.84
2022-09-05T22:09:27.335Z,53.87
2022-09-05T22:11:57.761Z,53.27
2022-09-05T22:14:26.875Z,53.10
2022-09-05T22:16:58.951Z,52.79
2022-09-05T22:19:37.597Z,52.99
2022-09-05T22:22:16.477Z,52.74
2022-09-05T22:24:50.960Z,52.00
2022-09-05T22:27:22.594Z,53.71
2022-09-05T22:29:51.818Z,51.53
2022-09-05T22:32:33.806Z,54.02
2022-09-05T22:35:27.421Z,55.20
2022-09-05T22:38:00.347Z,55.95
2022-09-05T22:40:30.492Z,53.67
2022-09-05T22:43:02.278Z,53.37
2022-09-05T22:45:32.740Z,51.86
2022-09-05T22:48:06.712Z,53.48
2022-09-05T22:50:35.293Z,52.41
2022-09-05T22:53:06.894Z,51.62
2022-09-05T22:55:35.995Z,51.60
2022-09-05T22:58:07.062Z,51.80
2022-09-05T23:00:36.283Z,51.14
2022-09-05T23:03:07.126Z,51.06
2022-09-05T23:05:36.460Z,50.21
2022-09-05T23:08:06.627Z,50.31
2022-09-05T23:10:36.536Z,51.04
2022-09-05T23:13:08.429Z,51.27
2022-09-05T23:15:37.991Z,50.98
2022-09-05T23:18:07.248Z,51.49
2022-09-05T23:20:36.231Z,51.60
2022-09-05T23:23:06.468Z,51.77
2022-09-05T23:25:36.239Z,51.37
2022-09-05T23:28:08.874Z,51.64
2022-09-05T23:30:38.083Z,51.83
2022-09-05T23:33:08.292Z,52.06
2022-09-05T23:35:37.772Z,51.93
2022-09-05T23:38:11.176Z,52.45
2022-09-05T23:40:40.204Z,52.58
2022-09-05T23:43:10.178Z,52.90
2022-09-05T23:45:38.623Z,52.88
2022-09-05T23:48:07.087Z,53.20
2022-09-05T23:50:35.530Z,53.64
2022-09-05T23:53:04.626Z,54.13
2022-09-05T23:55:33.582Z,53.81
2022-09-05T23:58:02.065Z,53.45
